Time;durP1;ratioP1;P1;durP2;ratioP2;P2;SDS_P1;SDS_P2;PMS_P1;PMS_P2;Temp;Humidity;BMP_temperature;BMP_pressure;BME280_temperature;BME280_humidity;BME280_pressure;Samples;Min_cycle;Max_cycle;Signal;HPM_P1;HPM_P2
2021/01/13 00:00:29;;;;;;;3.40;3.05;;;4.00;82.30;;;3.10;67.33;94064.09;5020042;28;20243;-80
2021/01/13 00:02:55;;;;;;;2.78;2.53;;;4.00;82.20;;;3.08;67.25;94064.28;5036101;28;20724;-81
2021/01/13 00:05:23;;;;;;;3.28;2.90;;;4.00;82.30;;;3.06;67.23;94068.81;5053124;28;20222;-81
2021/01/13 00:07:52;;;;;;;3.63;2.85;;;4.10;82.30;;;3.07;67.02;94080.00;5035733;28;20196;-80
2021/01/13 00:10:24;;;;;;;2.95;2.60;;;4.00;82.20;;;3.04;66.79;94078.53;5048645;28;20217;-81
2021/01/13 00:12:50;;;;;;;3.50;3.20;;;4.00;82.20;;;3.02;67.39;94085.66;5030581;28;20196;-81
2021/01/13 00:15:17;;;;;;;3.60;2.60;;;4.00;82.20;;;3.01;67.16;94084.03;5036190;28;20261;-80
2021/01/13 00:17:49;;;;;;;3.35;2.72;;;4.00;82.10;;;3.00;66.95;94080.66;5035492;28;20680;-81
2021/01/13 00:20:16;;;;;;;5.13;2.75;;;4.00;82.10;;;2.98;66.99;94084.34;5052496;28;20207;-80
2021/01/13 00:22:47;;;;;;;2.55;2.35;;;4.00;81.90;;;2.96;66.91;94094.09;5035512;28;20227;-81
2021/01/13 00:25:17;;;;;;;3.22;2.70;;;4.00;81.80;;;2.90;67.23;94092.16;5035462;28;20716;-80
2021/01/13 00:27:46;;;;;;;3.10;2.22;;;4.00;81.80;;;2.87;66.87;94088.13;5052638;28;20275;-81
2021/01/13 00:30:15;;;;;;;3.72;2.70;;;3.90;81.80;;;2.79;66.54;94088.94;5051677;28;20219;-81
2021/01/13 00:32:43;;;;;;;2.60;2.10;;;3.90;81.70;;;2.80;66.90;94095.72;5019354;28;20612;-81
2021/01/13 00:35:12;;;;;;;3.35;2.35;;;3.80;81.60;;;2.77;66.73;94098.66;5035471;28;20232;-81
2021/01/13 00:37:40;;;;;;;2.63;2.40;;;3.80;81.60;;;2.76;66.87;94099.63;5031888;28;20717;-81
2021/01/13 00:40:10;;;;;;;2.83;2.25;;;3.80;81.60;;;2.72;66.55;94104.34;5050684;28;20243;-81
2021/01/13 00:42:49;;;;;;;2.47;2.28;;;3.80;81.50;;;2.72;66.77;94122.44;5035565;28;20212;-81
2021/01/13 00:45:20;;;;;;;3.03;2.25;;;3.80;81.50;;;2.71;66.46;94125.19;5051247;28;20285;-80
2021/01/13 00:47:51;;;;;;;2.30;2.10;;;3.80;81.60;;;2.70;66.47;94115.81;5035664;28;20196;-81
2021/01/13 00:50:20;;;;;;;3.08;2.45;;;3.80;81.50;;;2.68;66.57;94122.94;5051538;28;20216;-80
2021/01/13 00:52:50;;;;;;;3.17;2.30;;;3.70;81.50;;;2.65;66.45;94116.31;5050574;28;20299;-81
2021/01/13 00:55:17;;;;;;;3.20;2.20;;;3.70;81.50;;;2.62;66.61;94115.81;5018846;28;20231;-80
2021/01/13 00:57:51;;;;;;;3.60;2.60;;;3.70;81.50;;;2.66;66.52;94135.22;5035028;28;20192;-81
2021/01/13 01:00:19;;;;;;;3.10;2.60;;;3.70;81.50;;;2.64;66.62;94150.13;5035288;28;20567;-80
2021/01/13 01:02:53;;;;;;;4.22;2.72;;;3.70;81.50;;;2.63;66.77;94130.38;5052348;28;20586;-80
2021/01/13 01:05:20;;;;;;;3.40;2.60;;;3.70;81.50;;;2.59;66.73;94136.84;5034884;28;20551;-81
2021/01/13 01:07:46;;;;;;;2.97;2.45;;;3.70;81.50;;;2.60;66.64;94141.88;5049855;28;20196;-81
2021/01/13 01:10:31;;;;;;;2.55;2.00;;;3.70;81.50;;;2.59;66.61;94144.59;5051276;28;20307;-81
2021/01/13 01:12:58;;;;;;;2.95;2.33;;;3.60;81.40;;;2.61;66.12;94153.81;5068343;28;20212;-81
2021/01/13 01:15:26;;;;;;;3.80;2.95;;;3.60;81.40;;;2.62;66.26;94154.66;5050479;28;20220;-82
2021/01/13 01:17:53;;;;;;;3.50;2.75;;;3.60;81.40;;;2.54;66.31;94161.44;5050987;28;20250;-82
2021/01/13 01:20:19;;;;;;;4.30;2.95;;;3.60;81.30;;;2.52;66.32;94165.16;5034633;28;20208;-80
2021/01/13 01:23:04;;;;;;;3.53;2.60;;;3.60;81.30;;;2.52;66.40;94178.91;5018723;28;20658;-81
2021/01/13 01:25:32;;;;;;;3.15;2.47;;;3.60;81.30;;;2.52;66.42;94194.44;5051709;28;20693;-80
2021/01/13 01:28:01;;;;;;;3.15;2.30;;;3.50;81.30;;;2.53;66.43;94184.91;5051327;28;20456;-82
2021/01/13 01:30:29;;;;;;;3.47;2.72;;;3.50;81.20;;;2.51;66.30;94192.03;5034218;28;20234;-81
2021/01/13 01:32:57;;;;;;;3.83;2.75;;;3.50;81.30;;;2.45;66.71;94195.25;5035052;28;20192;-82
2021/01/13 01:35:24;;;;;;;2.30;2.10;;;3.50;81.30;;;2.48;66.46;94208.69;5050923;28;20228;-81
2021/01/13 01:37:51;;;;;;;3.35;2.70;;;3.50;81.20;;;2.44;66.39;94209.97;5050703;28;20569;-81
2021/01/13 01:40:20;;;;;;;3.13;2.33;;;3.50;81.30;;;2.42;66.52;94211.91;5051008;28;20208;-81
2021/01/13 01:42:55;;;;;;;3.03;2.45;;;3.50;81.20;;;2.39;65.97;94218.22;5018189;28;20295;-80
2021/01/13 01:45:28;;;;;;;3.63;2.58;;;3.50;81.10;;;2.31;66.01;94223.38;5051091;28;20261;-80
2021/01/13 01:48:14;;;;;;;3.22;2.92;;;3.40;81.10;;;2.28;65.88;94213.31;5034631;28;20287;-81
2021/01/13 01:50:45;;;;;;;3.97;2.50;;;3.40;81.00;;;2.23;66.07;94221.56;5033492;28;20212;-80
2021/01/13 01:53:21;;;;;;;2.50;2.30;;;3.30;80.80;;;2.17;65.74;94248.06;5051169;28;20597;-81
2021/01/13 01:56:17;;;;;;;4.80;2.53;;;3.30;80.80;;;2.08;66.02;94226.53;5034881;28;20257;-81
2021/01/13 01:59:00;;;;;;;2.60;2.10;;;3.30;80.70;;;2.00;65.98;94233.44;5034700;28;20184;-81
2021/01/13 02:01:35;;;;;;;2.80;2.22;;;3.20;80.50;;;1.92;66.04;94229.06;5017858;28;20215;-82
2021/01/13 02:04:30;;;;;;;2.13;1.92;;;3.10;80.30;;;1.80;65.68;94228.50;5067191;28;20306;-81
2021/01/13 02:06:58;;;;;;;2.92;2.30;;;3.00;80.20;;;1.69;65.91;94247.69;5033713;28;20308;-81
2021/01/13 02:09:30;;;;;;;3.72;2.45;;;3.00;80.10;;;1.62;65.59;94240.72;5050891;28;20258;-82
2021/01/13 02:11:58;;;;;;;4.15;2.20;;;2.90;80.00;;;1.51;65.78;94249.53;5050459;28;20196;-81
2021/01/13 02:14:27;;;;;;;3.22;2.10;;;2.80;80.00;;;1.40;65.96;94251.41;5033467;28;20234;-81
2021/01/13 02:16:57;;;;;;;3.03;2.20;;;2.70;79.90;;;1.30;66.04;94266.19;5050562;28;20242;-81
2021/01/13 02:19:48;;;;;;;2.35;1.88;;;2.70;80.00;;;1.26;65.62;94265.69;5050544;28;20590;-82
2021/01/13 02:22:17;;;;;;;2.20;2.00;;;2.60;80.00;;;1.19;66.08;94279.34;5051379;28;20201;-81
2021/01/13 02:25:15;;;;;;;4.68;1.90;;;2.50;80.00;;;1.13;66.22;94285.13;5062984;28;20232;-81
2021/01/13 02:28:03;;;;;;;2.47;1.95;;;2.40;80.00;;;1.11;66.04;94283.50;5051453;28;20193;-81
2021/01/13 02:30:43;;;;;;;3.50;1.80;;;2.30;80.30;;;1.10;66.24;94284.44;5051074;28;20279;-81
2021/01/13 02:33:22;;;;;;;2.10;1.90;;;2.30;80.40;;;1.15;65.98;94294.34;5021833;28;20192;-82
2021/01/13 02:36:21;;;;;;;2.33;2.05;;;2.30;80.50;;;1.13;65.88;94288.50;5053824;28;20247;-81
2021/01/13 02:38:53;;;;;;;2.72;2.20;;;2.30;80.50;;;1.09;66.01;94287.19;5053936;28;20566;-81
2021/01/13 02:41:28;;;;;;;2.20;2.00;;;2.20;80.50;;;1.09;66.10;94285.41;5038187;28;20231;-80
2021/01/13 02:43:58;;;;;;;3.88;2.25;;;2.20;80.60;;;1.13;66.11;94287.69;5037536;28;20219;-82
2021/01/13 02:47:00;;;;;;;3.58;2.28;;;2.20;80.70;;;1.07;66.05;94276.97;5054124;28;20216;-82
2021/01/13 02:49:36;;;;;;;3.95;1.98;;;2.20;80.60;;;1.10;65.95;94293.97;5020785;28;20272;-81
2021/01/13 02:52:19;;;;;;;4.90;2.65;;;2.20;80.60;;;1.03;66.03;94283.41;5053757;28;20206;-81
2021/01/13 02:54:56;;;;;;;3.85;2.40;;;2.20;80.60;;;1.10;65.90;94304.31;5036992;28;20247;-81
2021/01/13 02:57:27;;;;;;;2.85;2.60;;;2.20;80.70;;;1.08;66.13;94298.47;5053876;28;20276;-81
2021/01/13 02:59:58;;;;;;;2.40;2.00;;;2.20;80.70;;;1.11;65.93;94301.56;5058118;28;20705;-81
2021/01/13 03:02:36;;;;;;;2.40;2.10;;;2.20;80.60;;;1.07;65.52;94296.84;5051388;28;20630;-82
2021/01/13 03:05:05;;;;;;;3.15;2.30;;;2.20;80.60;;;1.08;66.19;94309.59;5056640;28;20235;-81
2021/01/13 03:07:37;;;;;;;3.72;2.08;;;2.20;80.50;;;1.02;65.59;94305.03;5014786;28;20292;-82
2021/01/13 03:10:14;;;;;;;3.33;2.08;;;2.20;80.40;;;0.98;65.53;94308.06;5051775;28;20216;-82
2021/01/13 03:12:42;;;;;;;2.90;1.98;;;2.20;80.40;;;0.99;65.97;94302.75;5084530;28;20202;-81
2021/01/13 03:15:10;;;;;;;2.00;1.80;;;2.10;81.20;;;0.98;65.71;94308.88;5036340;28;20306;-81
2021/01/13 03:18:27;;;;;;;3.33;2.35;;;2.20;80.50;;;0.92;65.93;94302.53;5034482;28;20295;-81
2021/01/13 03:21:04;;;;;;;3.45;1.98;;;2.10;80.50;;;0.93;66.31;94316.25;5048559;28;20224;-80
2021/01/13 03:23:45;;;;;;;3.75;2.35;;;2.10;80.60;;;0.90;66.04;94307.00;5051966;28;20219;-80
2021/01/13 03:26:17;;;;;;;3.33;2.30;;;2.10;80.70;;;0.94;66.13;94321.28;5049652;28;20508;-81
2021/01/13 03:28:45;;;;;;;3.30;2.15;;;2.10;80.70;;;0.95;66.12;94320.31;5047069;28;20721;-82
2021/01/13 03:31:30;;;;;;;2.92;2.30;;;2.10;80.80;;;1.00;66.42;94319.06;5032428;28;20212;-81
2021/01/13 03:34:30;;;;;;;2.55;1.90;;;2.10;80.80;;;1.03;66.04;94326.50;5033688;28;20223;-82
2021/01/13 03:37:11;;;;;;;3.15;2.10;;;2.10;80.80;;;1.00;65.95;94316.47;5050306;28;20204;-81
2021/01/13 03:39:39;;;;;;;2.30;2.03;;;2.10;80.80;;;1.05;66.18;94322.00;5082777;28;20216;-81
2021/01/13 03:42:10;;;;;;;4.57;2.22;;;2.10;80.80;;;1.06;66.12;94323.63;5031520;28;20309;-82
2021/01/13 03:44:41;;;;;;;3.85;2.42;;;2.10;80.80;;;1.08;65.97;94327.69;5051127;28;20235;-81
2021/01/13 03:47:29;;;;;;;2.42;2.20;;;2.10;80.80;;;1.08;66.21;94327.69;5033404;28;20254;-81
2021/01/13 03:50:24;;;;;;;3.20;2.30;;;2.10;80.80;;;1.09;65.99;94325.94;5066094;28;20310;-82
2021/01/13 03:53:09;;;;;;;2.55;2.15;;;2.10;80.80;;;1.10;65.87;94328.34;5032103;28;20196;-81
2021/01/13 03:55:42;;;;;;;3.00;2.13;;;2.20;80.80;;;1.11;65.90;94329.16;5034436;28;20736;-82
2021/01/13 03:58:11;;;;;;;2.92;2.20;;;2.20;80.80;;;1.14;66.06;94333.22;5032264;28;20206;-82
2021/01/13 04:01:00;;;;;;;2.38;2.10;;;2.20;80.80;;;1.12;66.03;94333.34;5017392;28;20243;-81
2021/01/13 04:03:34;;;;;;;2.92;2.20;;;2.20;80.80;;;1.08;65.84;94332.84;5048202;28;20196;-81
2021/01/13 04:06:11;;;;;;;2.60;2.30;;;2.20;80.80;;;1.08;65.95;94343.16;5043717;28;20216;-81
2021/01/13 04:08:46;;;;;;;3.38;2.20;;;2.20;80.70;;;1.08;66.02;94337.22;5031346;28;20200;-81
2021/01/13 04:11:22;;;;;;;3.38;2.30;;;2.20;80.70;;;1.07;66.05;94341.53;5048658;28;20290;-81
2021/01/13 04:13:52;;;;;;;2.40;2.20;;;2.20;80.70;;;1.09;66.01;94344.00;5044452;28;20369;-80
2021/01/13 04:16:22;;;;;;;3.55;1.77;;;2.30;80.70;;;1.09;65.95;94342.22;5031344;28;20228;-80
2021/01/13 04:18:52;;;;;;;5.00;1.80;;;2.20;80.70;;;1.10;66.00;94353.38;5033365;28;20706;-80
2021/01/13 04:21:21;;;;;;;2.20;1.95;;;2.20;80.60;;;1.08;65.73;94353.50;5033736;28;20219;-81
2021/01/13 04:23:49;;;;;;;3.75;2.03;;;2.20;80.60;;;1.09;66.24;94344.00;5050616;28;20207;-80
2021/01/13 04:26:16;;;;;;;3.08;2.10;;;2.20;80.60;;;1.10;65.80;94363.72;5051122;28;20216;-80
2021/01/13 04:28:45;;;;;;;2.55;1.90;;;2.20;80.60;;;1.05;65.72;94350.41;5034910;28;20716;-80
2021/01/13 04:31:12;;;;;;;3.92;2.10;;;2.20;81.40;;;1.09;65.75;94365.47;5051841;28;20673;-80
2021/01/13 04:33:40;;;;;;;3.42;2.22;;;2.20;80.50;;;1.07;65.96;94353.66;5068040;28;20196;-80
2021/01/13 04:36:07;;;;;;;2.53;1.75;;;2.20;80.50;;;1.02;65.74;94355.88;5035146;28;20753;-80
2021/01/13 04:38:35;;;;;;;3.92;2.28;;;2.20;80.60;;;1.04;65.74;94359.09;5033820;28;20191;-80
2021/01/13 04:41:17;;;;;;;3.20;2.00;;;2.20;80.60;;;1.00;65.70;94362.94;5046844;28;20473;-80
2021/01/13 04:44:02;;;;;;;5.03;2.10;;;2.20;80.50;;;1.03;65.81;94360.09;5082636;28;20208;-79
2021/01/13 04:46:38;;;;;;;3.08;1.75;;;2.10;80.30;;;1.00;65.80;94350.88;5050179;28;20633;-80
2021/01/13 04:49:11;;;;;;;4.30;1.90;;;2.10;80.40;;;0.99;65.66;94364.72;5050400;28;20206;-79
2021/01/13 04:51:45;;;;;;;4.07;1.92;;;2.10;80.30;;;0.98;65.76;94357.94;5066189;28;20200;-80
2021/01/13 04:54:18;;;;;;;3.58;1.90;;;2.10;80.40;;;0.98;65.47;94368.28;5045882;28;20204;-80
2021/01/13 04:56:45;;;;;;;2.47;1.85;;;2.10;80.40;;;0.97;65.78;94358.91;5028410;28;20606;-79
2021/01/13 04:59:30;;;;;;;3.47;1.73;;;2.10;80.50;;;0.99;65.79;94366.50;5050427;28;20223;-80
2021/01/13 05:02:07;;;;;;;4.97;1.50;;;2.10;80.30;;;0.99;65.56;94372.47;5067482;28;20196;-81
2021/01/13 05:04:56;;;;;;;2.15;1.45;;;2.10;80.40;;;0.99;65.67;94372.47;5029512;28;20255;-81
2021/01/13 05:07:41;;;;;;;3.83;1.63;;;2.10;80.40;;;0.97;65.53;94376.16;5021119;28;20196;-80
2021/01/13 05:10:15;;;;;;;3.28;1.63;;;2.10;80.40;;;1.00;65.41;94375.88;5048859;28;20212;-80
2021/01/13 05:12:58;;;;;;;4.55;1.90;;;2.10;80.30;;;0.98;65.54;94372.59;5050026;28;20250;-80
2021/01/13 05:15:31;;;;;;;2.28;1.45;;;2.10;80.00;;;0.95;65.70;94384.03;5066555;28;20219;-80
2021/01/13 05:18:12;;;;;;;4.20;1.80;;;2.10;80.20;;;0.97;65.64;94371.00;5050326;28;20731;-80
2021/01/13 05:20:41;;;;;;;1.75;1.60;;;2.20;80.30;;;0.95;65.53;94369.38;5049185;28;20220;-80
2021/01/13 05:23:12;;;;;;;2.92;1.60;;;2.10;80.20;;;0.98;65.50;94368.28;5033145;28;20207;-80
2021/01/13 05:25:50;;;;;;;3.97;2.10;;;2.10;81.00;;;0.97;65.39;94368.41;5048027;28;20235;-80
2021/01/13 05:28:22;;;;;;;2.15;1.50;;;2.10;80.20;;;0.94;65.45;94370.34;5049524;28;20411;-80
2021/01/13 05:30:52;;;;;;;2.60;1.48;;;2.10;80.20;;;0.95;65.33;94374.53;5049377;28;20274;-80
2021/01/13 05:33:30;;;;;;;4.10;1.52;;;2.10;80.20;;;0.95;65.15;94379.69;5033486;28;20267;-79
2021/01/13 05:36:05;;;;;;;3.58;2.10;;;2.10;80.10;;;0.97;65.40;94379.56;5050604;28;20223;-80
2021/01/13 05:38:38;;;;;;;2.30;1.85;;;2.10;80.10;;;0.97;65.15;94381.34;5050883;28;20253;-80
2021/01/13 05:41:13;;;;;;;4.32;1.50;;;2.10;80.10;;;0.98;65.32;94370.84;5083792;28;20232;-81
2021/01/13 05:43:47;;;;;;;3.22;1.50;;;2.10;80.10;;;0.99;65.45;94377.66;5034096;28;20196;-81
2021/01/13 05:46:17;;;;;;;2.65;1.50;;;2.10;80.10;;;0.98;64.86;94390.69;5033476;28;20717;-80
2021/01/13 05:48:50;;;;;;;4.30;1.65;;;2.10;80.00;;;0.94;64.94;94383.25;5026748;28;20287;-80
2021/01/13 05:51:28;;;;;;;5.68;2.10;;;2.10;80.00;;;0.96;65.25;94393.41;5048716;28;20708;-81
2021/01/13 05:53:56;;;;;;;4.30;1.90;;;2.10;80.00;;;0.95;65.19;94396.94;5033430;28;20242;-81
2021/01/13 05:56:23;;;;;;;3.13;1.90;;;2.10;80.00;;;0.95;65.39;94402.13;5033471;28;20224;-80
2021/01/13 05:59:07;;;;;;;4.85;2.00;;;2.10;80.10;;;0.95;65.24;94407.28;5033542;28;20187;-81
2021/01/13 06:01:58;;;;;;;3.30;1.75;;;2.10;80.00;;;0.93;65.03;94406.63;5036910;28;20206;-80
2021/01/13 06:04:27;;;;;;;2.55;1.58;;;2.10;80.00;;;0.95;65.32;94415.03;5043878;28;20264;-80
2021/01/13 06:07:21;;;;;;;2.10;1.60;;;2.10;80.00;;;0.90;65.10;94406.91;5047114;28;20226;-80
2021/01/13 06:09:55;;;;;;;6.10;2.00;;;2.10;80.00;;;0.93;65.25;94415.19;5031696;28;20228;-80
2021/01/13 06:12:23;;;;;;;4.05;1.90;;;2.10;80.00;;;0.93;64.99;94409.22;5048400;28;20196;-80
2021/01/13 06:14:51;;;;;;;2.42;1.85;;;2.10;80.00;;;0.93;65.13;94409.22;5049051;28;20303;-80
2021/01/13 06:17:25;;;;;;;4.68;2.38;;;2.10;80.00;;;0.91;65.12;94400.78;5064546;28;20716;-79
2021/01/13 06:19:55;;;;;;;2.85;1.60;;;2.10;80.00;;;0.94;65.37;94405.66;5047858;28;20216;-80
2021/01/13 06:22:33;;;;;;;3.75;1.50;;;2.10;80.00;;;0.92;64.92;94410.97;5031094;28;20238;-81
2021/01/13 06:25:05;;;;;;;4.47;1.85;;;2.10;79.90;;;0.89;64.97;94408.69;5032149;28;20238;-79
2021/01/13 06:27:47;;;;;;;2.58;1.45;;;2.00;79.80;;;0.87;64.85;94417.53;5049428;28;20196;-81
2021/01/13 06:30:18;;;;;;;3.78;1.58;;;2.00;79.80;;;0.84;64.91;94407.50;5065032;28;20212;-81
2021/01/13 06:32:53;;;;;;;4.35;2.03;;;2.00;79.80;;;0.87;64.86;94409.78;5034238;28;20207;-81
2021/01/13 06:35:41;;;;;;;4.03;1.60;;;2.00;79.70;;;0.86;65.01;94416.72;5066867;28;20227;-80
2021/01/13 06:38:14;;;;;;;3.53;1.83;;;2.00;79.80;;;0.87;64.81;94418.34;5067076;28;20665;-80
2021/01/13 06:40:42;;;;;;;4.05;1.80;;;2.00;79.80;;;0.86;64.91;94424.47;5066198;28;20224;-80
2021/01/13 06:43:13;;;;;;;2.97;1.70;;;2.00;79.80;;;0.88;64.71;94424.31;5033726;28;20609;-80
2021/01/13 06:45:41;;;;;;;4.22;1.77;;;2.00;79.70;;;0.86;64.89;94424.47;5031834;28;20252;-80
2021/01/13 06:48:08;;;;;;;3.47;1.65;;;2.00;80.50;;;0.89;64.85;94423.34;5049896;28;20234;-81
2021/01/13 06:50:37;;;;;;;2.03;1.42;;;2.00;79.70;;;0.86;64.81;94441.72;5034271;28;20275;-79
2021/01/13 06:53:12;;;;;;;2.55;1.60;;;2.00;79.80;;;0.85;64.97;94424.59;5065672;28;20196;-80
2021/01/13 06:55:41;;;;;;;4.13;1.45;;;2.00;79.70;;;0.87;64.75;94426.09;5033893;28;20224;-80
2021/01/13 06:58:17;;;;;;;3.80;1.70;;;2.00;79.70;;;0.87;64.30;94431.25;5034442;28;20200;-81
2021/01/13 07:00:46;;;;;;;5.05;1.70;;;2.00;79.70;;;0.87;64.93;94430.44;5033642;28;20219;-80
2021/01/13 07:03:30;;;;;;;4.63;1.48;;;2.00;79.70;;;0.90;64.60;94440.47;5034156;28;20227;-81
2021/01/13 07:06:08;;;;;;;2.83;1.60;;;2.00;79.60;;;0.82;64.53;94428.28;5049286;28;20227;-80
2021/01/13 07:08:35;;;;;;;5.18;1.50;;;2.00;79.60;;;0.88;64.72;94443.22;5036010;28;20253;-80
2021/01/13 07:11:09;;;;;;;3.58;1.50;;;2.00;79.70;;;0.87;64.43;94433.81;5062411;28;20298;-82
2021/01/13 07:13:41;;;;;;;2.67;1.50;;;2.00;79.60;;;0.87;64.30;94435.63;5037191;28;20307;-81
2021/01/13 07:16:08;;;;;;;3.45;1.60;;;2.00;79.50;;;0.87;64.30;94449.31;5054011;28;20262;-80
2021/01/13 07:18:36;;;;;;;3.70;1.45;;;2.00;79.40;;;0.88;64.17;94445.78;5053462;28;20647;-81
2021/01/13 07:21:09;;;;;;;2.92;1.85;;;2.00;79.50;;;0.89;64.42;94438.84;5037327;28;20294;-81
2021/01/13 07:23:45;;;;;;;2.63;1.52;;;2.00;79.40;;;0.93;64.30;94442.78;5036850;28;20684;-79
2021/01/13 07:26:13;;;;;;;3.13;1.65;;;2.00;79.60;;;0.94;64.32;94449.53;5037546;28;20224;-80
2021/01/13 07:28:40;;;;;;;5.60;1.95;;;2.00;79.50;;;0.97;63.86;94445.88;5037371;28;20409;-80
2021/01/13 07:31:08;;;;;;;3.03;1.55;;;2.00;79.40;;;0.92;64.41;94438.56;5052839;28;20274;-80
2021/01/13 07:33:47;;;;;;;4.28;1.63;;;2.10;79.50;;;0.97;63.62;94446.69;5052965;28;20295;-80
2021/01/13 07:36:19;;;;;;;1.52;1.23;;;2.10;79.30;;;0.98;63.68;94452.66;5047491;28;20660;-80
2021/01/13 07:38:56;;;;;;;2.45;1.50;;;2.10;79.30;;;1.00;63.95;94455.91;5036182;28;20216;-80
2021/01/13 07:42:12;;;;;;;2.08;1.55;;;2.10;79.30;;;1.03;64.00;94458.22;5053179;28;20682;-80
2021/01/13 07:44:53;;;;;;;2.33;1.50;;;2.10;79.40;;;1.06;63.87;94460.50;5049277;28;20267;-80
2021/01/13 07:47:27;;;;;;;2.72;1.60;;;2.10;79.40;;;1.13;64.02;94460.75;5016953;28;20229;-80
2021/01/13 07:50:15;;;;;;;6.15;2.95;;;2.20;79.40;;;1.16;63.86;94463.84;5035247;28;20237;-81
2021/01/13 07:52:49;;;;;;;5.68;1.60;;;2.20;79.20;;;1.20;64.12;94466.97;5053250;28;20196;-81
2021/01/13 07:55:24;;;;;;;3.15;1.50;;;2.20;79.30;;;1.21;63.36;94466.81;5036359;28;20229;-81
2021/01/13 07:57:59;;;;;;;3.15;1.67;;;2.20;79.30;;;1.26;64.01;94467.19;5036447;28;20196;-81
2021/01/13 08:00:33;;;;;;;4.32;1.40;;;2.30;79.30;;;1.32;63.78;94470.13;5069083;28;20261;-80
2021/01/13 08:03:52;;;;;;;2.78;1.60;;;2.30;79.30;;;1.35;63.52;94475.03;5028983;28;20853;-81
2021/01/13 08:06:29;;;;;;;2.28;1.52;;;2.40;79.20;;;1.35;63.35;94469.84;5033660;28;20313;-80
2021/01/13 08:09:22;;;;;;;5.38;1.50;;;2.40;79.20;;;1.39;63.79;94473.75;5050048;28;20199;-81
2021/01/13 08:12:09;;;;;;;3.08;1.60;;;2.40;79.60;;;1.41;63.63;94475.22;5080581;28;20204;-80
2021/01/13 08:15:25;;;;;;;2.70;1.60;;;2.40;79.20;;;1.44;63.81;94481.88;5083353;28;20270;-80
2021/01/13 08:18:27;;;;;;;3.10;1.70;;;2.50;79.20;;;1.48;63.96;94479.81;5080039;28;20196;-80
2021/01/13 08:21:26;;;;;;;6.22;1.90;;;2.50;79.30;;;1.50;63.69;94483.06;5057106;28;20255;-80
2021/01/13 08:24:06;;;;;;;3.55;1.67;;;2.50;79.20;;;1.53;63.73;94487.97;5044776;28;20207;-80
2021/01/13 08:26:34;;;;;;;2.95;1.80;;;2.50;79.30;;;1.56;63.89;94483.31;5035832;28;20235;-80
2021/01/13 08:29:02;;;;;;;2.95;1.45;;;2.60;79.30;;;1.58;63.60;94486.56;5033427;28;20253;-80
2021/01/13 08:31:29;;;;;;;2.00;1.60;;;2.60;79.30;;;1.64;63.74;94489.53;5030795;28;20455;-81
2021/01/13 08:34:10;;;;;;;1.83;1.40;;;2.60;79.30;;;1.69;63.32;94492.47;5048655;28;20206;-81
2021/01/13 08:36:39;;;;;;;2.47;1.52;;;2.60;79.20;;;1.70;63.65;94499.28;5032116;28;20265;-80
2021/01/13 08:39:13;;;;;;;2.75;1.67;;;2.70;79.30;;;1.71;63.18;94498.28;5050206;28;20668;-81
2021/01/13 08:41:45;;;;;;;1.60;1.20;;;2.70;79.10;;;1.72;63.16;94503.34;5028969;28;20207;-80
2021/01/13 08:44:18;;;;;;;3.42;1.48;;;2.80;79.10;;;1.74;63.14;94503.19;5016241;28;20228;-80
2021/01/13 08:46:50;;;;;;;3.38;1.45;;;2.70;79.00;;;1.76;63.30;94509.81;5082657;28;20222;-80
2021/01/13 08:49:36;;;;;;;5.10;4.00;;;2.80;79.10;;;1.77;63.07;94502.91;5034195;28;20200;-80
2021/01/13 08:52:25;;;;;;;5.10;2.28;;;2.80;78.90;;;1.79;63.11;94508.72;5067032;28;20287;-81
2021/01/13 08:54:55;;;;;;;4.05;1.75;;;2.80;78.90;;;1.85;62.99;94510.72;5033413;28;20219;-81
2021/01/13 08:57:26;;;;;;;2.40;1.80;;;2.80;79.00;;;1.89;63.10;94511.22;5050894;28;20556;-81
2021/01/13 08:59:53;;;;;;;4.18;1.60;;;2.80;78.90;;;1.95;62.95;94505.47;5063574;28;20220;-81
2021/01/13 09:02:24;;;;;;;2.70;1.90;;;2.80;79.00;;;2.01;62.88;94502.28;5033811;28;20735;-81
2021/01/13 09:04:54;;;;;;;5.07;1.90;;;2.90;79.00;;;2.13;63.11;94497.69;5033347;28;20685;-80
2021/01/13 09:07:29;;;;;;;2.45;1.77;;;2.90;79.20;;;2.29;63.08;94494.41;5034803;28;20204;-80
2021/01/13 09:10:13;;;;;;;3.42;1.92;;;3.00;79.20;;;2.43;62.90;94484.47;5046535;28;20639;-81
2021/01/13 09:12:43;;;;;;;2.92;1.85;;;3.10;79.60;;;2.48;62.31;94488.22;5036294;28;20227;-81
2021/01/13 09:15:19;;;;;;;3.53;1.77;;;3.20;79.20;;;2.51;61.97;94492.28;5042113;28;20216;-80
2021/01/13 09:17:47;;;;;;;3.42;1.73;;;3.30;78.80;;;2.51;61.89;94493.09;5070615;28;20565;-81
2021/01/13 09:20:13;;;;;;;3.03;1.60;;;3.30;78.60;;;2.50;61.91;94495.84;5064835;28;20700;-81
2021/01/13 09:22:51;;;;;;;2.60;1.80;;;3.40;78.50;;;2.47;61.86;94504.72;5066655;28;20548;-81
2021/01/13 09:25:26;;;;;;;4.75;2.08;;;3.40;78.40;;;2.43;61.74;94498.25;5048736;28;20303;-81
2021/01/13 09:28:14;;;;;;;5.47;1.80;;;3.40;78.00;;;2.37;61.46;94510.00;5033036;28;20230;-80
2021/01/13 09:30:43;;;;;;;4.30;2.08;;;3.30;77.80;;;2.36;61.78;94498.03;5030663;28;20246;-82
2021/01/13 09:33:20;;;;;;;4.32;1.75;;;3.40;78.10;;;2.34;62.16;94512.88;5033577;28;20192;-81
2021/01/13 09:35:59;;;;;;;2.38;1.65;;;3.40;79.00;;;2.33;61.82;94523.38;5031965;28;20227;-81
2021/01/13 09:38:37;;;;;;;2.80;1.88;;;3.40;78.20;;;2.31;62.06;94513.19;5014537;28;20219;-80
2021/01/13 09:41:07;;;;;;;2.03;1.70;;;3.40;78.30;;;2.35;62.06;94509.31;5050441;28;20227;-81
2021/01/13 09:43:41;;;;;;;4.63;1.98;;;3.40;78.60;;;2.38;62.98;94495.28;5032913;28;20214;-81
2021/01/13 09:46:29;;;;;;;4.53;2.20;;;3.40;78.80;;;2.56;62.66;94506.41;5048823;28;20232;-80
2021/01/13 09:49:11;;;;;;;4.35;2.28;;;3.40;78.80;;;2.66;61.99;94502.88;5050925;28;20234;-80
2021/01/13 09:51:40;;;;;;;2.05;1.60;;;3.50;78.50;;;2.70;61.27;94501.63;5050651;28;20614;-81
2021/01/13 09:54:08;;;;;;;5.43;1.90;;;3.50;78.50;;;2.78;61.86;94508.63;5034075;28;20275;-81
2021/01/13 09:56:37;;;;;;;2.53;1.98;;;3.60;78.60;;;2.81;61.90;94509.13;5034544;28;20203;-78
2021/01/13 09:59:07;;;;;;;5.97;2.50;;;3.60;78.60;;;2.80;60.86;94509.28;5033353;28;20571;-78
2021/01/13 10:01:36;;;;;;;2.40;1.70;;;3.70;78.00;;;2.78;61.48;94506.03;5034334;28;20223;-79
2021/01/13 10:04:13;;;;;;;4.82;2.20;;;3.70;78.10;;;2.78;61.49;94511.22;5050032;28;20192;-78
2021/01/13 10:06:43;;;;;;;6.28;1.80;;;3.70;78.90;;;2.75;61.52;94496.81;5030341;28;20200;-78
2021/01/13 10:09:19;;;;;;;5.72;2.10;;;3.70;78.10;;;2.70;61.54;94507.63;5035256;28;20203;-79
2021/01/13 10:11:54;;;;;;;6.72;2.45;;;3.70;78.00;;;2.65;61.05;94506.44;5031044;28;20200;-79
2021/01/13 10:14:23;;;;;;;4.30;2.10;;;3.70;77.80;;;2.61;61.31;94505.13;5031011;28;20221;-81
2021/01/13 10:16:51;;;;;;;3.67;1.90;;;3.70;77.80;;;2.58;61.69;94502.88;5032098;28;20215;-81
2021/01/13 10:19:20;;;;;;;3.15;2.30;;;3.60;77.80;;;2.57;61.92;94502.03;5043230;28;20291;-81
2021/01/13 10:21:49;;;;;;;3.80;2.20;;;3.60;77.90;;;2.62;61.99;94509.34;5018200;28;20192;-81
2021/01/13 10:24:18;;;;;;;4.85;2.33;;;3.60;78.20;;;2.69;62.10;94500.00;5050288;28;20223;-80
2021/01/13 10:26:49;;;;;;;6.32;2.38;;;3.60;78.40;;;2.78;61.79;94503.44;5050283;28;20204;-81
2021/01/13 10:29:23;;;;;;;6.15;2.13;;;3.60;78.40;;;2.79;61.45;94502.50;5050254;28;20200;-80
2021/01/13 10:31:51;;;;;;;3.72;2.13;;;3.70;78.10;;;2.80;61.37;94502.31;5034027;28;20669;-81
2021/01/13 10:34:19;;;;;;;3.58;2.20;;;3.70;78.10;;;2.76;61.22;94493.25;5033604;28;20212;-81
2021/01/13 10:36:51;;;;;;;6.63;2.65;;;3.70;78.00;;;2.75;61.70;94490.78;5034226;28;20192;-79
2021/01/13 10:39:27;;;;;;;5.93;2.35;;;3.70;78.10;;;2.76;62.11;94495.84;5050172;28;20200;-80
2021/01/13 10:41:56;;;;;;;3.47;2.00;;;3.70;78.10;;;2.75;61.95;94493.38;5036228;28;20207;-82
2021/01/13 10:44:28;;;;;;;3.90;2.22;;;3.80;78.10;;;2.72;61.71;94494.50;5054164;28;20343;-81
2021/01/13 10:46:57;;;;;;;3.00;2.03;;;3.70;78.10;;;2.69;62.43;94484.47;5053956;28;20243;-79
2021/01/13 10:49:44;;;;;;;2.17;1.70;;;3.70;78.30;;;2.70;62.19;94486.91;5086130;28;20616;-82
2021/01/13 10:52:17;;;;;;;2.90;2.00;;;3.70;78.30;;;2.69;62.42;94493.03;5037624;28;20203;-81
2021/01/13 10:54:54;;;;;;;3.65;2.00;;;3.70;78.50;;;2.68;62.75;94493.19;5038063;28;20306;-80
2021/01/13 10:57:31;;;;;;;3.15;2.17;;;3.70;78.70;;;2.67;62.80;94489.81;5037897;28;20203;-81
2021/01/13 11:00:11;;;;;;;3.13;1.90;;;3.70;78.80;;;2.70;63.29;94488.69;5050872;28;20821;-82
2021/01/13 11:02:39;;;;;;;6.18;2.05;;;3.70;79.00;;;2.68;63.53;94499.19;5017148;28;20564;-82
2021/01/13 11:05:07;;;;;;;4.03;2.20;;;3.70;79.10;;;2.64;63.42;94497.88;5030418;28;20227;-82